Allen, TX

10:07 AM CDT on June 30, 2015 (GMT -0500)
KTXLUCAS5 | | Change Station
CLOSE
Current Station
Personal Weather Station
Location: Lucas, TX
Elevation: 627 ft
Nearby Weather Stations

Elev 627 ft 33.09 °N, 96.60 °W | Updated 16 seconds ago

Clear
Clear
89.1 °F
Feels Like 99 °F
N
6.3
Wind Variable Wind from SW
Gusts 9.4 mph

Today
High -- | Low -- °F
--% Chance of Precip.
Yesterday
High -- | Low -- °F
Precip. -- in
6:20 AM 8:39 PM
Waxing Gibbous, 97% visible
Pressure 30.02 in
Visibility 10.0 miles
Clouds Clear
Heat Index 99 °F
Dew Point 74 °F
Humidity 62%
Rainfall in
Snow Depth Not available.
UV 5 out of 12
Pollen 4.60 out of 12
Air Quality Not available.
Flu Activity Local Activity
METAR KTKI 301453Z 22015KT 10SM CLR 29/22 A3003 RMK AO2 SLP164 T02890217 50005

More Conditions Fewer Conditions

Pressure 30.02 in
Visibility 10.0 miles
Clouds Clear
Heat Index 99 °F
Dew Point 74 °F
Humidity 62%
Rainfall in
Snow Depth Not available.
UV 5 out of 12
Pollen 4.60 out of 12
Air Quality Not available.
Flu Activity Local Activity
METAR KTKI 301453Z 22015KT 10SM CLR 29/22 A3003 RMK AO2 SLP164 T02890217 50005

More Conditions Fewer Conditions

10-Day Weather Forecast

×

Almanac

Astronomy

Jun. 30, 2015 Rise Set
Actual Time
Civil Twilight
Nautical Twilight
Astronomical Twilight
Moon
Length of Visible Light
Length of Day
Tomorrow will be .
, % of the Moon is Illuminated

Today's Extremes

State Highs State Lows

Community

WunderPhotos

Upload Photos

1,834,017 photos uploaded!

WunderBlogs® & News

Nearby

Air Quality

  Air Quality AQ Index Pollutant
Not available.

Snow Depth

Station Depth Elevation

Earthquake Activity

City Distance Mag. Time & Date
Minimum magnitude displayed is 2.5.

Coastal Water Temperatures

Place Temperature

Stations

Nearby Weather Stations

Station Location Temp. Windchill Dew Point Humidity Wind Precip. Elev Updated Type